Granite, Maryland
Current Conditions -  °F | °C
As of 3:54 PM on Thursday 23 Oct 2014 (Local Time) from KBWI Reporting Station
Broken Clouds Broken Clouds  
Wind Chill: 62°   Ceiling: 4300
Heat Index: 62°   Visibility: 10mi
Dew Point: 45°   Wind: 9mph
Humidity: 53%   Direction: 320°NW
Pressure: 29.82"   Gusts: 23mph
Location:  39.337°N, 76.8601°W
Report Text: KBWI 231954Z 32008G20KT 10SM BKN043 BKN090 17/07 A2982 RMK AO2 SLP098 T01670072
Loading
Personal Weather Stations






























Interactive Weather Map
Tropical Storm Tracking
New forecast layout! Learn more

10-Day Weather Forecast

Advertisements
Track Severe Weather on mobile